Time;durP1;ratioP1;P1;durP2;ratioP2;P2;SDS_P1;SDS_P2;PMS_P1;PMS_P2;Temp;Humidity;BMP_temperature;BMP_pressure;BME280_temperature;BME280_humidity;BME280_pressure;Samples;Min_cycle;Max_cycle;Signal;HPM_P1;HPM_P2
2024/01/27 00:00:05;;;;;;;5.50;2.60;;;14.60;98.00;;;;;;5053494;28;20198;-5
2024/01/27 00:02:55;;;;;;;5.27;2.47;;;14.60;98.00;;;;;;5054240;28;20179;-7
2024/01/27 00:06:09;;;;;;;4.67;2.67;;;14.60;98.00;;;;;;5054012;28;20166;-5
2024/01/27 00:08:44;;;;;;;3.77;2.30;;;14.60;98.00;;;;;;4952729;29;20508;-6
2024/01/27 00:11:42;;;;;;;4.73;2.27;;;14.60;98.00;;;;;;4952547;29;20612;-6
2024/01/27 00:14:44;;;;;;;5.80;2.80;;;14.60;98.10;;;;;;5039751;28;20213;-6
2024/01/27 00:17:16;;;;;;;2.70;2.00;;;14.60;98.30;;;;;;5034356;28;20174;-7
2024/01/27 00:20:33;;;;;;;5.10;2.60;;;14.60;98.00;;;;;;5032836;28;20186;-5
2024/01/27 00:23:04;;;;;;;4.13;2.43;;;14.50;98.00;;;;;;4952873;29;20195;-6
2024/01/27 00:26:19;;;;;;;2.90;2.27;;;14.60;98.10;;;;;;4952603;29;20201;-5
2024/01/27 00:35:29;;;;;;;3.30;2.50;;;14.50;98.00;;;;;;4915334;29;20217;-8
2024/01/27 00:38:06;;;;;;;3.27;2.07;;;14.50;98.00;;;;;;4916076;29;20463;-5
2024/01/27 00:40:56;;;;;;;3.80;2.60;;;14.50;98.00;;;;;;4919178;29;20227;-6
2024/01/27 00:43:30;;;;;;;3.97;2.60;;;14.50;98.00;;;;;;4882554;29;20547;-5
2024/01/27 00:46:56;;;;;;;3.20;2.30;;;14.50;98.00;;;;;;4882155;29;20218;-5
2024/01/27 00:49:27;;;;;;;5.07;2.57;;;14.50;98.00;;;;;;4807845;29;20199;-5
2024/01/27 00:54:54;;;;;;;3.63;2.20;;;14.50;98.00;;;;;;4807307;29;20251;-6
2024/01/27 00:57:38;;;;;;;2.87;2.17;;;14.50;98.10;;;;;;4806139;29;20628;-6
2024/01/27 01:00:44;;;;;;;5.87;4.10;;;14.50;98.10;;;;;;4852274;29;20742;-5
2024/01/27 01:03:12;;;;;;;3.87;2.30;;;14.50;98.10;;;;;;4861351;29;20198;-6
2024/01/27 01:06:33;;;;;;;4.13;2.63;;;14.50;98.10;;;;;;4854905;29;20343;-6
2024/01/27 01:09:05;;;;;;;3.83;2.30;;;14.50;98.20;;;;;;4998109;28;20188;-6
2024/01/27 01:11:51;;;;;;;4.37;2.50;;;14.50;98.10;;;;;;5014553;28;20190;-5
2024/01/27 01:14:40;;;;;;;5.33;2.50;;;14.40;98.10;;;;;;5034317;28;20191;-7
2024/01/27 01:17:12;;;;;;;3.73;2.20;;;14.50;98.20;;;;;;4998803;28;20226;-4
2024/01/27 01:19:53;;;;;;;4.07;2.03;;;14.40;98.20;;;;;;5014800;28;20181;-4
2024/01/27 01:22:40;;;;;;;3.30;2.27;;;14.40;98.20;;;;;;5014868;28;20197;-5
2024/01/27 01:25:44;;;;;;;3.07;2.13;;;14.40;98.10;;;;;;5015487;28;20273;-5
2024/01/27 01:28:32;;;;;;;2.70;2.27;;;14.40;98.20;;;;;;5032683;28;20535;-5
2024/01/27 01:31:19;;;;;;;3.60;2.47;;;14.40;98.20;;;;;;5057170;28;20179;-6
2024/01/27 01:33:45;;;;;;;3.13;2.20;;;14.40;98.20;;;;;;5038451;28;20184;-7
2024/01/27 01:36:36;;;;;;;3.57;2.13;;;14.40;98.20;;;;;;5056434;28;20164;-7
2024/01/27 01:39:26;;;;;;;5.07;2.40;;;14.40;98.20;;;;;;5057101;28;20269;-7
2024/01/27 01:42:04;;;;;;;6.67;2.50;;;14.40;98.20;;;;;;5056886;28;20172;-6
2024/01/27 01:44:37;;;;;;;3.27;2.27;;;14.40;98.10;;;;;;5038610;28;20227;-4
2024/01/27 01:47:07;;;;;;;4.23;2.27;;;14.40;98.20;;;;;;5056481;28;20444;-6
2024/01/27 01:50:13;;;;;;;3.93;2.00;;;14.40;98.10;;;;;;5057285;28;20172;-5
2024/01/27 01:53:06;;;;;;;4.20;2.23;;;14.40;98.10;;;;;;5055518;28;20177;-6
2024/01/27 01:55:57;;;;;;;6.13;2.30;;;14.30;98.10;;;;;;5056110;28;20171;-6
2024/01/27 01:58:33;;;;;;;3.13;1.90;;;14.40;98.10;;;;;;5055096;28;20177;-5
2024/01/27 02:01:19;;;;;;;3.67;2.20;;;14.30;98.00;;;;;;5026429;28;20188;-6
2024/01/27 02:04:10;;;;;;;3.10;2.30;;;14.30;98.00;;;;;;5038804;28;20216;-5
2024/01/27 02:06:42;;;;;;;4.37;2.57;;;14.30;98.00;;;;;;5055506;28;20615;-5
2024/01/27 02:09:16;;;;;;;2.93;2.20;;;14.30;98.00;;;;;;5053634;28;20422;-7
2024/01/27 02:12:38;;;;;;;2.87;2.23;;;14.30;98.00;;;;;;5054798;28;20175;-6
2024/01/27 02:18:16;;;;;;;2.70;2.03;;;14.30;98.00;;;;;;5052622;28;20188;-5
2024/01/27 02:21:09;;;;;;;3.37;2.20;;;14.30;98.00;;;;;;5054475;28;20622;-6
2024/01/27 02:23:44;;;;;;;5.17;2.40;;;14.30;98.00;;;;;;5055722;28;20517;-6
2024/01/27 02:26:35;;;;;;;2.97;1.90;;;14.30;98.00;;;;;;5055548;28;20471;-6
2024/01/27 02:29:22;;;;;;;3.27;1.90;;;14.30;97.90;;;;;;5055944;28;20178;-4
2024/01/27 02:31:51;;;;;;;3.57;2.07;;;14.30;97.90;;;;;;5055580;28;20428;-6
2024/01/27 02:34:41;;;;;;;4.20;2.20;;;14.20;97.90;;;;;;5035605;28;20423;-5
2024/01/27 02:37:07;;;;;;;3.10;2.00;;;14.20;97.90;;;;;;5032802;28;20167;-4
2024/01/27 02:39:50;;;;;;;3.23;2.00;;;14.20;97.90;;;;;;5049093;28;20245;-6
2024/01/27 02:42:22;;;;;;;3.17;1.93;;;14.20;97.90;;;;;;5055110;28;20173;-5
2024/01/27 02:45:31;;;;;;;2.30;2.07;;;14.20;97.80;;;;;;5054544;28;20189;-5
2024/01/27 02:48:03;;;;;;;4.43;2.10;;;14.20;97.80;;;;;;5053054;28;20570;-5
2024/01/27 02:53:43;;;;;;;4.77;2.40;;;14.20;97.80;;;;;;4991093;28;20192;-6
2024/01/27 02:56:23;;;;;;;3.33;2.00;;;14.20;97.80;;;;;;4992372;28;20644;-4
2024/01/27 02:59:14;;;;;;;2.60;2.00;;;14.20;97.80;;;;;;4992570;28;20187;-5
2024/01/27 03:02:13;;;;;;;3.00;1.80;;;14.20;97.80;;;;;;4975690;28;20176;-6
2024/01/27 03:04:41;;;;;;;2.93;2.10;;;14.20;97.70;;;;;;4972318;28;20189;-5
2024/01/27 03:10:48;;;;;;;2.70;1.93;;;14.10;97.70;;;;;;5002229;28;20203;-5
2024/01/27 03:13:14;;;;;;;4.73;2.30;;;14.10;97.70;;;;;;4937354;29;20213;-20
2024/01/27 03:16:01;;;;;;;3.27;2.07;;;14.10;97.70;;;;;;4939285;29;20597;-5
2024/01/27 03:19:16;;;;;;;4.30;2.17;;;14.10;97.60;;;;;;4955552;29;20194;-4
2024/01/27 03:21:47;;;;;;;3.20;2.07;;;14.10;97.60;;;;;;4954699;29;20229;-4
2024/01/27 03:24:37;;;;;;;4.33;2.03;;;14.10;97.60;;;;;;4953931;29;20199;-5
2024/01/27 03:27:03;;;;;;;3.17;1.80;;;14.10;97.60;;;;;;4955117;29;20541;-6
2024/01/27 03:29:34;;;;;;;2.27;1.60;;;14.10;97.60;;;;;;4955182;29;20579;-6
2024/01/27 03:34:54;;;;;;;3.40;2.07;;;14.10;97.60;;;;;;4935117;29;20468;-5
2024/01/27 03:37:47;;;;;;;2.80;1.83;;;14.10;97.50;;;;;;4954597;29;20202;-7
2024/01/27 03:40:30;;;;;;;2.83;1.93;;;14.10;97.50;;;;;;4897689;29;20198;-5
2024/01/27 03:43:04;;;;;;;2.87;2.03;;;14.10;97.50;;;;;;4896854;29;20688;-6
2024/01/27 03:48:35;;;;;;;2.83;1.93;;;14.00;97.50;;;;;;4953088;29;20215;-5
2024/01/27 03:51:13;;;;;;;2.80;1.93;;;14.00;97.50;;;;;;5031383;28;20196;-7
2024/01/27 03:54:06;;;;;;;2.80;1.83;;;14.00;97.40;;;;;;5011197;28;20207;-7
2024/01/27 03:56:44;;;;;;;3.10;1.93;;;14.00;97.40;;;;;;5011900;28;20256;-5
2024/01/27 03:59:43;;;;;;;4.70;1.80;;;14.00;97.40;;;;;;4995975;28;20242;-4
2024/01/27 04:05:22;;;;;;;3.43;2.00;;;14.00;97.40;;;;;;4998601;28;20184;-4
2024/01/27 04:11:42;;;;;;;3.37;2.00;;;14.00;97.30;;;;;;5009440;28;20233;-7
2024/01/27 04:14:32;;;;;;;2.90;1.87;;;13.90;97.30;;;;;;5010077;28;20323;-6
2024/01/27 04:19:42;;;;;;;2.97;1.73;;;13.90;97.30;;;;;;5016598;28;20258;-5
2024/01/27 04:28:53;;;;;;;2.93;1.87;;;13.90;97.30;;;;;;4938971;28;20199;-5
2024/01/27 04:31:31;;;;;;;3.03;1.90;;;13.90;97.20;;;;;;4959252;28;20198;-23
2024/01/27 04:37:53;;;;;;;3.07;1.70;;;13.90;97.20;;;;;;4936824;29;20526;-6
2024/01/27 04:40:36;;;;;;;3.07;1.80;;;13.90;97.20;;;;;;4899002;29;20262;-6
2024/01/27 04:43:37;;;;;;;3.03;1.90;;;13.90;97.20;;;;;;4895917;29;20571;-4
2024/01/27 04:46:24;;;;;;;3.50;2.03;;;13.90;97.10;;;;;;4891075;29;20218;-5
2024/01/27 04:48:53;;;;;;;2.70;2.00;;;13.80;97.10;;;;;;4881915;29;20191;-7
2024/01/27 04:52:03;;;;;;;2.50;1.80;;;13.90;97.10;;;;;;4882300;29;20273;-4
2024/01/27 04:54:38;;;;;;;2.60;1.70;;;13.80;97.10;;;;;;4908654;29;20181;-3
2024/01/27 04:57:31;;;;;;;3.60;2.00;;;13.80;97.10;;;;;;4937819;29;20191;-6
2024/01/27 04:59:59;;;;;;;2.13;1.70;;;13.80;97.00;;;;;;4936922;29;20189;-6
2024/01/27 05:02:44;;;;;;;2.30;1.73;;;13.80;97.00;;;;;;4989907;28;20214;-5
2024/01/27 05:05:35;;;;;;;2.63;1.70;;;13.80;97.00;;;;;;5015889;28;20187;-6
2024/01/27 05:08:19;;;;;;;2.30;1.50;;;13.80;97.00;;;;;;5015810;28;20273;-6
2024/01/27 05:11:09;;;;;;;4.10;1.93;;;13.80;97.00;;;;;;5010016;28;20522;-6
2024/01/27 05:13:43;;;;;;;2.43;1.80;;;13.80;96.90;;;;;;5038535;28;20178;-6
2024/01/27 05:16:31;;;;;;;2.60;1.57;;;13.80;96.90;;;;;;5055283;28;20275;-5
2024/01/27 05:19:16;;;;;;;1.90;1.60;;;13.80;96.90;;;;;;5036839;28;20178;-5
2024/01/27 05:21:45;;;;;;;2.07;1.53;;;13.80;96.90;;;;;;5034651;28;20191;-5
2024/01/27 05:24:29;;;;;;;2.73;1.60;;;13.70;96.90;;;;;;5037145;28;20436;-4
2024/01/27 05:27:38;;;;;;;1.97;1.50;;;13.70;96.90;;;;;;5036447;28;20320;-5
2024/01/27 05:33:32;;;;;;;2.60;1.73;;;13.70;96.90;;;;;;5054106;28;20246;-4
2024/01/27 05:39:47;;;;;;;3.27;1.70;;;13.70;96.80;;;;;;5055031;28;20553;-6
2024/01/27 05:42:24;;;;;;;2.23;1.70;;;13.70;96.80;;;;;;4939711;29;20348;-5
2024/01/27 05:44:56;;;;;;;3.50;1.80;;;13.70;96.80;;;;;;4954978;29;20195;-6
2024/01/27 05:47:55;;;;;;;2.70;1.70;;;13.70;97.00;;;;;;4938329;29;20292;-5
2024/01/27 05:50:43;;;;;;;2.90;1.80;;;13.70;96.80;;;;;;4955092;29;20187;-5
2024/01/27 05:53:42;;;;;;;2.47;1.60;;;13.70;96.80;;;;;;4954018;28;20503;-5
2024/01/27 05:56:38;;;;;;;2.33;1.67;;;13.70;96.80;;;;;;4896327;29;20467;-5
2024/01/27 05:59:30;;;;;;;2.80;1.70;;;13.70;96.80;;;;;;4952409;28;20211;-5
2024/01/27 06:02:23;;;;;;;2.17;1.53;;;13.70;96.70;;;;;;4972055;28;20193;-5
2024/01/27 06:05:14;;;;;;;2.57;1.70;;;13.60;96.70;;;;;;4957407;28;20279;-6
2024/01/27 06:08:01;;;;;;;2.50;1.60;;;13.70;96.70;;;;;;4955353;28;20612;-6
2024/01/27 06:10:31;;;;;;;2.37;1.50;;;13.60;96.70;;;;;;4922212;28;20181;-6
2024/01/27 06:13:07;;;;;;;2.40;1.70;;;13.60;96.70;;;;;;4971231;28;20207;-4
2024/01/27 06:15:41;;;;;;;2.93;1.73;;;13.60;96.70;;;;;;4971593;28;20562;-6
2024/01/27 06:18:28;;;;;;;2.30;1.60;;;13.60;96.70;;;;;;4971509;28;20187;-5
2024/01/27 06:20:57;;;;;;;2.40;1.70;;;13.60;96.60;;;;;;4972962;28;20503;-5
2024/01/27 06:23:31;;;;;;;2.17;1.67;;;13.60;96.60;;;;;;4971339;28;20175;-5
2024/01/27 06:26:43;;;;;;;2.43;1.70;;;13.60;96.60;;;;;;4971464;28;20516;-5
2024/01/27 06:29:08;;;;;;;2.03;1.60;;;13.60;96.60;;;;;;4955321;28;20188;-6
2024/01/27 06:38:19;;;;;;;3.07;1.73;;;13.50;96.50;;;;;;5053413;28;20222;-6
2024/01/27 06:44:19;;;;;;;2.33;1.50;;;13.50;96.50;;;;;;4990750;28;20731;-6
2024/01/27 06:46:49;;;;;;;2.37;1.63;;;13.50;96.50;;;;;;4973613;28;20225;-5
2024/01/27 06:49:36;;;;;;;4.27;1.90;;;13.50;96.40;;;;;;4991270;28;20185;-6
2024/01/27 06:52:14;;;;;;;2.20;1.60;;;13.50;96.40;;;;;;5020083;28;20207;-4
2024/01/27 06:54:43;;;;;;;2.70;1.67;;;13.50;96.40;;;;;;5052790;28;20208;-6
2024/01/27 06:57:43;;;;;;;2.23;1.60;;;13.50;96.40;;;;;;5054444;28;20570;-5
2024/01/27 07:00:21;;;;;;;3.57;1.80;;;13.50;96.40;;;;;;5054608;28;20458;-4
2024/01/27 07:03:23;;;;;;;2.83;1.43;;;13.50;96.30;;;;;;5052916;28;20173;-5
2024/01/27 07:06:07;;;;;;;3.27;1.60;;;13.50;96.30;;;;;;5051749;28;20208;-5
2024/01/27 07:08:42;;;;;;;1.77;1.50;;;13.50;96.60;;;;;;5033120;28;20172;-7
2024/01/27 07:11:35;;;;;;;3.33;1.87;;;13.40;96.30;;;;;;5049535;28;20199;-6
2024/01/27 07:14:20;;;;;;;2.07;1.60;;;13.40;96.30;;;;;;5051004;28;20223;-7
2024/01/27 07:17:03;;;;;;;2.93;1.70;;;13.40;96.30;;;;;;5049248;28;20177;-5
2024/01/27 07:19:41;;;;;;;2.80;1.50;;;13.40;96.30;;;;;;5031596;28;20342;-5
2024/01/27 07:22:23;;;;;;;2.63;1.60;;;13.40;96.30;;;;;;5050210;28;20520;-6
2024/01/27 07:25:04;;;;;;;1.83;1.50;;;13.40;96.20;;;;;;5049891;28;20179;-4
2024/01/27 07:27:42;;;;;;;2.47;1.70;;;13.40;96.20;;;;;;5049404;28;20395;-5
2024/01/27 07:30:30;;;;;;;3.43;1.67;;;13.40;96.50;;;;;;5032669;28;20543;-4
2024/01/27 07:33:15;;;;;;;2.17;1.70;;;13.40;96.20;;;;;;5051282;28;20461;-5
2024/01/27 07:36:21;;;;;;;3.20;1.80;;;13.40;96.20;;;;;;5050936;28;20493;-4
2024/01/27 07:38:47;;;;;;;2.67;1.70;;;13.40;96.20;;;;;;4974472;28;20224;-5
2024/01/27 07:41:24;;;;;;;3.00;1.90;;;13.40;96.20;;;;;;4990008;28;20214;-5
2024/01/27 07:43:57;;;;;;;2.50;1.63;;;13.40;96.20;;;;;;5043871;28;20188;-5
2024/01/27 07:49:48;;;;;;;2.07;1.50;;;13.40;96.10;;;;;;5050452;28;20230;-4
2024/01/27 07:52:43;;;;;;;3.13;1.73;;;13.40;96.10;;;;;;5050096;28;20175;-5
2024/01/27 07:55:27;;;;;;;2.97;1.40;;;13.40;96.40;;;;;;4933517;29;20462;-7
2024/01/27 08:00:42;;;;;;;3.10;1.50;;;13.40;96.00;;;;;;4949922;29;20176;-5
2024/01/27 08:03:49;;;;;;;2.17;1.40;;;13.40;96.00;;;;;;4936020;29;20506;-5
2024/01/27 08:06:33;;;;;;;1.97;1.47;;;13.40;96.00;;;;;;4950241;29;20231;-5
2024/01/27 08:09:02;;;;;;;3.83;1.50;;;13.40;95.90;;;;;;4949369;29;20181;-6
2024/01/27 08:12:02;;;;;;;3.70;1.80;;;13.40;96.00;;;;;;4968667;28;20188;-5
2024/01/27 08:14:45;;;;;;;2.80;1.70;;;13.50;96.20;;;;;;5034626;28;20203;-4
2024/01/27 08:17:36;;;;;;;3.70;1.90;;;13.50;96.60;;;;;;5032475;28;20312;-5
2024/01/27 08:20:05;;;;;;;4.07;1.90;;;13.50;96.50;;;;;;5051326;28;20176;-6
2024/01/27 08:22:40;;;;;;;3.23;1.83;;;13.50;96.50;;;;;;5035120;28;20247;-4
2024/01/27 08:25:09;;;;;;;4.53;1.90;;;13.60;96.50;;;;;;5052068;28;20172;-5
2024/01/27 08:27:40;;;;;;;2.73;1.90;;;13.60;96.50;;;;;;5033660;28;20212;-4
2024/01/27 08:30:21;;;;;;;4.77;1.77;;;13.70;96.40;;;;;;5049571;28;20260;-5
2024/01/27 08:32:47;;;;;;;3.00;1.80;;;13.80;96.00;;;;;;5050914;28;20212;-6
2024/01/27 08:35:24;;;;;;;2.70;1.70;;;13.90;95.80;;;;;;5047917;28;20577;-6
2024/01/27 08:38:09;;;;;;;3.37;1.97;;;14.20;94.90;;;;;;5048472;28;20179;-6
2024/01/27 08:40:53;;;;;;;5.07;1.90;;;14.60;93.70;;;;;;5029953;28;20213;-6
2024/01/27 08:43:28;;;;;;;4.87;1.73;;;15.00;92.30;;;;;;5031242;28;20215;-8
2024/01/27 08:46:11;;;;;;;4.93;2.20;;;15.40;90.70;;;;;;5047639;28;20231;-6
2024/01/27 08:48:37;;;;;;;4.60;1.90;;;15.60;89.20;;;;;;5049271;28;20198;-6
2024/01/27 08:54:40;;;;;;;3.23;1.80;;;15.90;86.00;;;;;;5048943;28;20254;-6
2024/01/27 08:57:33;;;;;;;2.93;1.63;;;16.10;84.60;;;;;;5050457;28;20175;-5
2024/01/27 09:00:20;;;;;;;4.77;2.00;;;16.20;83.60;;;;;;5050888;28;20322;-5
2024/01/27 09:02:51;;;;;;;3.23;1.70;;;16.20;82.50;;;;;;5053071;28;20187;-8
2024/01/27 09:05:46;;;;;;;3.07;1.90;;;16.30;81.80;;;;;;5053807;28;20192;-6
2024/01/27 09:08:21;;;;;;;4.37;2.10;;;16.40;81.10;;;;;;5051136;28;20261;-7
2024/01/27 09:11:12;;;;;;;5.20;2.00;;;16.50;80.70;;;;;;5027943;28;20428;-6
2024/01/27 09:13:59;;;;;;;4.90;2.00;;;16.50;80.30;;;;;;5032807;28;20339;-6
2024/01/27 09:16:37;;;;;;;4.77;1.90;;;16.60;79.60;;;;;;5050779;28;20215;-8
2024/01/27 09:19:08;;;;;;;4.43;2.07;;;16.60;78.90;;;;;;5050306;28;20349;-6
2024/01/27 09:21:58;;;;;;;4.07;2.10;;;16.60;78.60;;;;;;5051784;28;20255;-6
2024/01/27 09:24:27;;;;;;;4.67;2.20;;;16.70;78.30;;;;;;5051675;28;20172;-5
2024/01/27 09:26:59;;;;;;;3.33;1.90;;;16.70;78.10;;;;;;5033277;28;20366;-5
2024/01/27 09:29:31;;;;;;;5.03;2.23;;;16.70;77.80;;;;;;5034281;28;20241;-6
2024/01/27 09:32:20;;;;;;;3.53;2.00;;;16.70;77.70;;;;;;5034146;28;20439;-6
2024/01/27 09:35:24;;;;;;;7.03;2.43;;;16.60;77.70;;;;;;5052710;28;20187;-7
2024/01/27 09:38:11;;;;;;;4.60;2.47;;;16.60;77.90;;;;;;4954874;28;20210;-5
2024/01/27 09:40:37;;;;;;;6.60;2.70;;;16.60;78.00;;;;;;4980770;28;20663;-5
2024/01/27 09:43:07;;;;;;;6.10;2.20;;;16.50;78.20;;;;;;5035042;28;20207;-6
2024/01/27 09:45:45;;;;;;;6.70;2.37;;;16.50;78.50;;;;;;5051083;28;20164;-5
2024/01/27 09:48:33;;;;;;;5.13;2.40;;;16.40;78.90;;;;;;5034270;28;20168;-8
2024/01/27 09:51:14;;;;;;;6.67;2.57;;;16.40;79.30;;;;;;5051149;28;20250;-6
2024/01/27 09:53:43;;;;;;;9.00;2.60;;;16.30;79.60;;;;;;5032738;28;20257;-6
2024/01/27 09:59:34;;;;;;;6.90;2.63;;;16.10;81.30;;;;;;5051498;28;20336;-6
2024/01/27 10:02:02;;;;;;;5.77;2.53;;;16.10;81.90;;;;;;5031892;28;20173;-7
2024/01/27 10:04:29;;;;;;;4.80;2.40;;;16.00;82.20;;;;;;5050198;28;20597;-7
2024/01/27 10:06:57;;;;;;;5.30;2.63;;;15.90;82.90;;;;;;5034809;28;20273;-6
2024/01/27 10:09:48;;;;;;;7.37;2.63;;;15.90;83.70;;;;;;5053667;28;20183;-6
2024/01/27 10:12:23;;;;;;;7.03;2.80;;;15.80;84.30;;;;;;4955652;28;20217;-7
2024/01/27 10:14:50;;;;;;;6.93;2.87;;;15.70;85.30;;;;;;4954280;28;20178;-7
2024/01/27 10:17:45;;;;;;;7.83;3.30;;;15.60;86.20;;;;;;4952376;28;20179;-6
2024/01/27 10:20:18;;;;;;;4.63;2.70;;;15.60;87.00;;;;;;4970298;28;20229;-7
2024/01/27 10:22:50;;;;;;;5.90;2.70;;;15.50;87.40;;;;;;4969253;28;20657;-5
2024/01/27 10:25:28;;;;;;;6.83;2.93;;;15.50;88.10;;;;;;5047447;28;20438;-7
2024/01/27 10:27:57;;;;;;;7.40;2.93;;;15.40;88.80;;;;;;5048891;28;20273;-7
2024/01/27 10:30:26;;;;;;;6.60;2.73;;;15.40;89.10;;;;;;5033854;28;20188;-6
2024/01/27 10:32:59;;;;;;;7.50;2.90;;;15.40;89.60;;;;;;5033006;28;20342;-7
2024/01/27 10:35:58;;;;;;;8.93;2.53;;;15.50;89.70;;;;;;5049361;28;20180;-6
2024/01/27 10:38:39;;;;;;;5.87;3.20;;;15.50;89.80;;;;;;5033445;28;20180;-6
2024/01/27 10:41:12;;;;;;;8.57;3.33;;;15.50;89.80;;;;;;5031945;28;20180;-6
2024/01/27 10:43:41;;;;;;;7.50;2.90;;;15.50;90.00;;;;;;5048622;28;20167;-6
2024/01/27 10:46:08;;;;;;;6.60;2.73;;;15.40;90.10;;;;;;5031910;28;20231;-7
2024/01/27 10:48:54;;;;;;;6.67;2.70;;;15.40;90.30;;;;;;5049862;28;20165;-7
2024/01/27 10:51:58;;;;;;;9.67;2.90;;;15.30;90.30;;;;;;5048681;28;20426;-6
2024/01/27 10:55:15;;;;;;;7.33;2.70;;;15.30;90.50;;;;;;5029395;28;20168;-6
2024/01/27 10:57:42;;;;;;;7.80;2.93;;;15.30;90.60;;;;;;4986983;28;20254;-7
2024/01/27 11:00:33;;;;;;;5.53;3.00;;;15.30;90.60;;;;;;5046494;28;20569;-6
2024/01/27 11:03:07;;;;;;;6.67;2.67;;;15.30;90.50;;;;;;5048183;28;20444;-7
2024/01/27 11:05:40;;;;;;;5.80;3.10;;;15.30;90.50;;;;;;5028779;28;20172;-4
2024/01/27 11:08:27;;;;;;;7.63;2.60;;;15.40;90.50;;;;;;5049787;28;20190;-6
2024/01/27 11:10:54;;;;;;;7.00;3.10;;;15.40;90.50;;;;;;5049707;28;20194;-6
2024/01/27 11:13:48;;;;;;;7.67;2.50;;;15.40;90.60;;;;;;5048113;28;20577;-5
2024/01/27 11:16:27;;;;;;;7.87;3.00;;;15.40;90.60;;;;;;5031377;28;20168;-6
2024/01/27 11:18:57;;;;;;;7.03;3.10;;;15.40;90.70;;;;;;5030038;28;20172;-5
2024/01/27 11:21:44;;;;;;;5.10;2.53;;;15.30;90.80;;;;;;5027298;28;20255;-7
2024/01/27 11:24:33;;;;;;;8.37;2.60;;;15.30;90.80;;;;;;5007586;28;20235;-6
2024/01/27 11:27:08;;;;;;;5.27;2.70;;;15.30;90.90;;;;;;5005931;28;20220;-5
2024/01/27 11:29:50;;;;;;;6.97;2.70;;;15.40;90.90;;;;;;5025143;28;20518;-6
2024/01/27 11:32:22;;;;;;;5.57;2.80;;;15.40;91.00;;;;;;5024968;28;20437;-6
2024/01/27 11:34:54;;;;;;;8.30;2.50;;;15.40;91.00;;;;;;5007094;28;20169;-5
2024/01/27 11:37:27;;;;;;;6.17;2.47;;;15.40;91.10;;;;;;5026460;28;20192;-8
2024/01/27 11:40:09;;;;;;;9.10;3.27;;;15.40;91.20;;;;;;5006578;28;20173;-6
2024/01/27 11:42:35;;;;;;;8.10;2.90;;;15.40;91.20;;;;;;5034249;28;20270;-8
2024/01/27 11:45:01;;;;;;;6.07;2.80;;;15.40;91.30;;;;;;5018329;28;20232;-5
2024/01/27 11:47:30;;;;;;;5.53;2.60;;;15.40;91.40;;;;;;5041111;28;20609;-6
2024/01/27 11:49:57;;;;;;;12.97;6.40;;;15.40;91.60;;;;;;5045210;28;20800;-6
2024/01/27 11:52:30;;;;;;;6.00;2.97;;;15.50;91.60;;;;;;5041560;28;20192;-8
2024/01/27 11:55:03;;;;;;;9.43;2.70;;;15.50;91.70;;;;;;5044089;28;20211;-6
2024/01/27 11:57:37;;;;;;;8.53;3.00;;;15.50;91.60;;;;;;5056172;28;20184;-7
2024/01/27 12:00:15;;;;;;;5.20;2.63;;;15.50;91.60;;;;;;5036116;28;20273;-6
2024/01/27 12:02:53;;;;;;;8.53;3.00;;;15.40;91.60;;;;;;5030454;28;20232;-7
2024/01/27 12:05:31;;;;;;;8.83;2.67;;;15.50;91.60;;;;;;5029916;28;20279;-7
2024/01/27 12:07:58;;;;;;;6.90;2.70;;;15.50;91.80;;;;;;5028790;28;20216;-5
2024/01/27 12:10:29;;;;;;;8.87;3.00;;;15.50;91.80;;;;;;5045139;28;20176;-6
2024/01/27 12:12:55;;;;;;;7.50;2.93;;;15.50;91.80;;;;;;5043123;28;20192;-6
2024/01/27 12:15:47;;;;;;;7.50;2.77;;;15.40;91.80;;;;;;5033462;28;20168;-7
2024/01/27 12:18:19;;;;;;;9.63;2.87;;;15.40;91.90;;;;;;5031656;28;20197;-5
2024/01/27 12:20:48;;;;;;;6.20;2.90;;;15.40;92.00;;;;;;5027913;28;20165;-6
2024/01/27 12:23:22;;;;;;;7.03;3.00;;;15.40;92.10;;;;;;5028353;28;20184;-5
2024/01/27 12:26:14;;;;;;;6.20;2.90;;;15.30;92.20;;;;;;5029115;28;20221;-5
2024/01/27 12:28:56;;;;;;;8.43;2.93;;;15.30;92.30;;;;;;5029151;28;20256;-8
2024/01/27 12:31:39;;;;;;;12.60;7.50;;;15.30;92.40;;;;;;5029785;28;20179;-4
2024/01/27 12:37:28;;;;;;;7.33;2.70;;;15.30;92.50;;;;;;4970335;28;20553;-5
2024/01/27 12:40:22;;;;;;;6.27;2.77;;;15.20;92.60;;;;;;4969251;28;20206;-6
2024/01/27 12:42:48;;;;;;;9.90;2.93;;;15.20;92.70;;;;;;4975837;28;20397;-6
2024/01/27 12:45:20;;;;;;;6.97;3.03;;;15.20;92.70;;;;;;4967857;28;20249;-6
2024/01/27 12:48:06;;;;;;;8.90;3.30;;;15.20;92.80;;;;;;4956928;28;20836;-6
2024/01/27 12:50:38;;;;;;;9.60;3.07;;;15.20;92.80;;;;;;4953335;28;20444;-7
2024/01/27 12:53:15;;;;;;;9.07;3.07;;;15.20;93.20;;;;;;4966317;28;20353;-6
2024/01/27 12:55:47;;;;;;;8.03;2.90;;;15.20;92.90;;;;;;4949134;28;20193;-7
2024/01/27 12:58:15;;;;;;;6.67;2.70;;;15.20;93.00;;;;;;4973368;28;20294;-5
2024/01/27 13:00:44;;;;;;;5.93;2.80;;;15.10;93.00;;;;;;5027107;28;20487;-7
2024/01/27 13:03:16;;;;;;;11.30;2.80;;;15.10;93.10;;;;;;5012717;28;20223;-6
2024/01/27 13:05:42;;;;;;;7.70;2.83;;;15.20;93.10;;;;;;5012686;28;20443;-6
2024/01/27 13:08:34;;;;;;;8.00;2.77;;;15.10;93.10;;;;;;5031369;28;20207;-6
2024/01/27 13:11:03;;;;;;;6.80;2.70;;;15.10;93.20;;;;;;4949361;29;20186;-6
2024/01/27 13:13:31;;;;;;;8.37;2.87;;;15.10;93.20;;;;;;4949235;29;20587;-6
2024/01/27 13:16:12;;;;;;;5.83;2.93;;;15.10;93.20;;;;;;4949578;29;20599;-6
2024/01/27 13:18:56;;;;;;;7.13;3.07;;;15.10;93.30;;;;;;4948979;29;20178;-6
2024/01/27 13:21:34;;;;;;;6.33;2.90;;;15.10;93.30;;;;;;4967899;28;20181;-6
2024/01/27 13:24:02;;;;;;;7.40;2.40;;;15.10;93.40;;;;;;5029619;28;20509;-6
2024/01/27 13:26:43;;;;;;;5.53;2.50;;;15.10;93.40;;;;;;5028801;28;20215;-6
2024/01/27 13:29:40;;;;;;;7.70;4.50;;;15.10;93.50;;;;;;5009720;28;20458;-7
2024/01/27 13:32:11;;;;;;;6.00;2.37;;;15.10;93.50;;;;;;5027503;28;20426;-5
2024/01/27 13:34:50;;;;;;;6.03;2.83;;;15.10;93.50;;;;;;5027957;28;20169;-6
2024/01/27 13:37:16;;;;;;;4.57;2.40;;;15.10;93.50;;;;;;5027831;28;20183;-6
2024/01/27 13:39:42;;;;;;;6.93;2.30;;;15.10;93.60;;;;;;5028408;28;20433;-5
2024/01/27 13:42:07;;;;;;;6.73;2.60;;;15.00;93.60;;;;;;5028908;28;20497;-6
2024/01/27 13:44:36;;;;;;;7.47;4.63;;;15.00;93.60;;;;;;5027866;28;20509;-6
2024/01/27 13:47:12;;;;;;;8.20;2.70;;;15.00;93.70;;;;;;5026144;28;20216;-5
2024/01/27 13:49:38;;;;;;;9.80;5.50;;;15.00;93.70;;;;;;5011045;28;20196;-7
2024/01/27 13:52:31;;;;;;;5.70;2.53;;;15.00;93.70;;;;;;5027382;28;20551;-5
2024/01/27 13:54:57;;;;;;;6.27;2.90;;;15.00;93.70;;;;;;5010299;28;20208;-6
2024/01/27 13:57:41;;;;;;;4.57;2.33;;;15.00;93.80;;;;;;5010009;28;20265;-5
2024/01/27 14:00:16;;;;;;;6.93;2.60;;;15.00;93.80;;;;;;5027976;28;20511;-5
2024/01/27 14:02:50;;;;;;;5.67;2.30;;;15.00;93.80;;;;;;5010091;28;20234;-6
2024/01/27 14:05:25;;;;;;;6.70;2.70;;;15.00;93.90;;;;;;5009524;28;20176;-6
2024/01/27 14:07:51;;;;;;;3.43;1.90;;;15.00;93.90;;;;;;5028687;28;20237;-6
2024/01/27 14:10:44;;;;;;;6.63;2.60;;;15.00;93.90;;;;;;5028523;28;20177;-6
2024/01/27 14:13:10;;;;;;;4.37;2.37;;;15.00;94.00;;;;;;5028789;28;20283;-6
2024/01/27 14:15:39;;;;;;;3.20;2.13;;;15.00;94.00;;;;;;5013026;28;20275;-7
2024/01/27 14:18:33;;;;;;;4.90;2.60;;;15.00;94.00;;;;;;5029512;28;20185;-5
2024/01/27 14:21:21;;;;;;;3.83;2.00;;;14.90;94.00;;;;;;5029713;28;20433;-6
2024/01/27 14:23:46;;;;;;;3.87;2.03;;;15.00;94.10;;;;;;5028366;28;20177;-7
2024/01/27 14:26:47;;;;;;;4.83;2.03;;;15.00;94.10;;;;;;5026475;28;20236;-6
2024/01/27 14:29:13;;;;;;;4.77;2.40;;;14.90;94.10;;;;;;5009068;28;20478;-4
2024/01/27 14:31:50;;;;;;;5.27;2.50;;;15.00;94.10;;;;;;5030897;28;20588;-6
2024/01/27 14:34:28;;;;;;;4.50;2.20;;;14.90;94.20;;;;;;5031153;28;20274;-6
2024/01/27 14:37:13;;;;;;;5.40;2.27;;;14.90;94.20;;;;;;5029712;28;20167;-6
2024/01/27 14:39:42;;;;;;;5.13;2.20;;;15.00;94.30;;;;;;5012274;28;20181;-5
2024/01/27 14:42:17;;;;;;;5.33;2.30;;;14.90;94.30;;;;;;5004125;28;20251;-6
2024/01/27 14:44:46;;;;;;;3.50;2.00;;;14.90;94.30;;;;;;5029284;28;20172;-6
2024/01/27 14:47:12;;;;;;;5.80;2.40;;;14.90;94.30;;;;;;5024701;28;20224;-6
2024/01/27 14:49:38;;;;;;;5.67;2.03;;;14.90;94.30;;;;;;5024641;28;20184;-5
2024/01/27 14:52:13;;;;;;;6.03;2.53;;;14.90;94.30;;;;;;5008910;28;20176;-8
2024/01/27 14:55:02;;;;;;;4.70;2.23;;;14.90;94.30;;;;;;5026434;28;20347;-6
2024/01/27 14:57:31;;;;;;;7.37;2.43;;;14.90;94.30;;;;;;5023642;28;20211;-7
2024/01/27 15:00:14;;;;;;;4.67;2.20;;;14.90;94.10;;;;;;5009251;28;20177;-5
2024/01/27 15:02:45;;;;;;;6.23;2.10;;;15.00;94.00;;;;;;5027098;28;20177;-6
2024/01/27 15:05:20;;;;;;;16.13;3.00;;;15.00;94.00;;;;;;5011710;28;20181;-4
2024/01/27 15:07:57;;;;;;;6.27;2.43;;;15.00;93.90;;;;;;5026699;28;20208;-6
2024/01/27 15:10:23;;;;;;;8.07;2.20;;;14.90;93.90;;;;;;5026047;28;20778;-6
2024/01/27 15:12:55;;;;;;;12.70;3.33;;;15.10;93.90;;;;;;5025925;28;20246;-6
2024/01/27 15:15:20;;;;;;;20.17;3.80;;;15.40;93.70;;;;;;5026866;28;20175;-6
2024/01/27 15:17:55;;;;;;;11.83;3.27;;;15.90;93.60;;;;;;5009434;28;20185;-6
2024/01/27 15:20:24;;;;;;;15.30;4.40;;;16.20;91.60;;;;;;5009580;28;20182;-6
2024/01/27 15:22:59;;;;;;;19.53;4.37;;;16.30;90.20;;;;;;5028301;28;20522;-6